createdAt,value
2022-10-02T00:02:27.372Z,1.00
2022-10-02T00:05:17.755Z,0.93
2022-10-02T00:07:49.569Z,1.30
2022-10-02T00:10:19.035Z,1.20
2022-10-02T00:12:47.309Z,1.37
2022-10-02T00:15:19.252Z,1.43
2022-10-02T00:17:49.407Z,1.43
2022-10-02T00:20:18.915Z,1.20
2022-10-02T00:22:56.681Z,1.40
2022-10-02T00:25:29.313Z,1.40
2022-10-02T00:28:14.641Z,3.70
2022-10-02T00:31:18.719Z,1.97
2022-10-02T00:34:23.347Z,1.60
2022-10-02T00:37:11.778Z,1.30
2022-10-02T00:39:51.419Z,1.30
2022-10-02T00:42:52.437Z,1.30
2022-10-02T00:45:35.322Z,1.00
2022-10-02T00:48:39.708Z,1.57
2022-10-02T00:51:15.323Z,1.67
2022-10-02T00:54:03.882Z,1.20
2022-10-02T00:56:58.430Z,1.33
2022-10-02T00:59:35.135Z,1.23
2022-10-02T01:02:14.126Z,1.20
2022-10-02T01:04:41.629Z,1.87
2022-10-02T01:07:11.529Z,1.53
2022-10-02T01:09:39.486Z,1.10
2022-10-02T01:12:07.246Z,1.53
2022-10-02T01:14:39.035Z,1.93
2022-10-02T01:17:26.327Z,1.60
2022-10-02T01:19:53.412Z,2.30
2022-10-02T01:22:45.659Z,1.77
2022-10-02T01:25:12.780Z,1.87
2022-10-02T01:27:39.851Z,5.63
2022-10-02T01:30:20.751Z,2.03
2022-10-02T01:32:57.161Z,2.80
2022-10-02T01:35:28.107Z,1.97
2022-10-02T01:37:55.378Z,1.63
2022-10-02T01:40:34.308Z,2.00
2022-10-02T01:43:22.912Z,2.37
2022-10-02T01:46:01.916Z,1.97
2022-10-02T01:48:59.742Z,1.60
2022-10-02T01:51:55.504Z,2.17
2022-10-02T01:55:11.578Z,1.90
2022-10-02T01:58:24.677Z,1.80
2022-10-02T02:01:23.520Z,2.10
2022-10-02T02:04:16.853Z,2.13
2022-10-02T02:07:05.356Z,2.13
2022-10-02T02:09:40.001Z,1.90
2022-10-02T02:12:12.046Z,2.00
2022-10-02T02:14:52.142Z,1.93
2022-10-02T02:17:27.032Z,2.00
2022-10-02T02:20:02.402Z,2.07
2022-10-02T02:22:33.621Z,3.10
2022-10-02T02:25:23.088Z,2.03
2022-10-02T02:27:55.192Z,1.80
2022-10-02T02:30:24.661Z,1.80
2022-10-02T02:33:01.953Z,4.07
2022-10-02T02:35:41.826Z,1.67
2022-10-02T02:38:14.990Z,1.70
2022-10-02T02:40:46.257Z,2.07
2022-10-02T02:43:24.752Z,1.80
2022-10-02T02:45:58.128Z,2.13
2022-10-02T02:48:32.736Z,1.50
2022-10-02T02:51:32.667Z,2.50
2022-10-02T02:53:59.185Z,1.90
2022-10-02T02:56:28.363Z,1.80
2022-10-02T02:59:01.678Z,2.40
2022-10-02T03:01:28.357Z,2.13
2022-10-02T03:03:55.314Z,2.00
2022-10-02T03:06:37.900Z,2.03
2022-10-02T03:09:10.943Z,2.00
2022-10-02T03:11:52.970Z,1.57
2022-10-02T03:14:58.322Z,1.70
2022-10-02T03:17:34.064Z,3.13
2022-10-02T03:20:08.568Z,1.20
2022-10-02T03:22:41.562Z,1.40
2022-10-02T03:25:32.083Z,1.23
2022-10-02T03:28:12.974Z,2.80
2022-10-02T03:30:41.639Z,1.50
2022-10-02T03:33:12.282Z,2.13
2022-10-02T03:35:39.969Z,2.07
2022-10-02T03:38:12.334Z,1.43
2022-10-02T03:40:39.567Z,1.67
2022-10-02T03:43:07.432Z,1.97
2022-10-02T03:45:50.374Z,1.80
2022-10-02T03:48:18.312Z,2.17
2022-10-02T03:50:45.568Z,2.43
2022-10-02T03:53:21.733Z,3.43
2022-10-02T03:55:54.350Z,2.30
2022-10-02T03:58:22.199Z,2.67
2022-10-02T04:00:58.563Z,2.07
2022-10-02T04:03:34.754Z,2.50
2022-10-02T04:06:06.337Z,1.87
2022-10-02T04:09:16.320Z,1.90
2022-10-02T04:12:02.842Z,1.90
2022-10-02T04:14:46.050Z,1.73
2022-10-02T04:17:30.726Z,1.90
2022-10-02T04:20:07.083Z,2.03
2022-10-02T04:22:39.121Z,2.40
2022-10-02T04:25:13.345Z,2.03
2022-10-02T04:27:48.098Z,2.00
2022-10-02T04:30:17.213Z,2.03
2022-10-02T04:32:43.974Z,1.70
2022-10-02T04:35:22.758Z,1.80
2022-10-02T04:37:52.288Z,1.70
2022-10-02T04:40:41.820Z,1.70
2022-10-02T04:43:34.522Z,1.77
2022-10-02T04:46:12.189Z,1.40
2022-10-02T04:48:57.279Z,1.47
2022-10-02T04:51:41.598Z,1.70
2022-10-02T04:54:46.923Z,2.97
2022-10-02T04:57:35.323Z,1.50
2022-10-02T05:00:11.356Z,1.93
2022-10-02T05:02:56.920Z,2.00
2022-10-02T05:05:51.785Z,2.40
2022-10-02T05:08:30.547Z,2.27
2022-10-02T05:11:18.739Z,2.40
2022-10-02T05:14:03.650Z,2.30
2022-10-02T05:16:36.544Z,2.40
2022-10-02T05:19:34.536Z,2.23
2022-10-02T05:22:13.947Z,2.10
2022-10-02T05:24:59.653Z,2.67
2022-10-02T05:27:35.395Z,2.70
2022-10-02T05:30:05.576Z,2.60
2022-10-02T05:32:59.484Z,2.90
2022-10-02T05:35:35.276Z,2.47
2022-10-02T05:38:20.670Z,2.60
2022-10-02T05:40:56.475Z,2.50
2022-10-02T05:43:26.181Z,2.17
2022-10-02T05:45:56.521Z,3.33
2022-10-02T05:48:26.031Z,1.80
2022-10-02T05:51:00.126Z,2.60
2022-10-02T05:53:46.624Z,2.27
2022-10-02T05:56:19.242Z,2.47
2022-10-02T05:59:06.630Z,2.57
2022-10-02T06:01:42.346Z,2.73
2022-10-02T06:04:18.464Z,2.40
2022-10-02T06:06:49.573Z,2.63
2022-10-02T06:09:33.831Z,2.57
2022-10-02T06:12:09.460Z,2.80
2022-10-02T06:14:39.184Z,2.77
2022-10-02T06:17:12.596Z,2.87
2022-10-02T06:19:47.879Z,2.60
2022-10-02T06:22:23.531Z,2.60
2022-10-02T06:25:12.046Z,3.03
2022-10-02T06:27:52.285Z,3.27
2022-10-02T06:30:19.836Z,3.50
2022-10-02T06:32:58.871Z,3.27
2022-10-02T06:35:43.144Z,3.07
2022-10-02T06:38:22.469Z,6.43
2022-10-02T06:41:33.946Z,3.33
2022-10-02T06:44:26.937Z,3.57
2022-10-02T06:47:27.157Z,3.03
2022-10-02T06:50:20.762Z,3.03
2022-10-02T06:52:57.125Z,2.80
2022-10-02T06:55:33.137Z,3.23
2022-10-02T06:58:05.658Z,3.57
2022-10-02T07:00:50.166Z,3.30
2022-10-02T07:03:18.965Z,2.50
2022-10-02T07:06:08.435Z,2.47
2022-10-02T07:09:12.411Z,2.30
2022-10-02T07:12:06.369Z,2.77
2022-10-02T07:14:44.912Z,2.30
2022-10-02T07:17:22.486Z,2.10
2022-10-02T07:20:29.699Z,2.80
2022-10-02T07:23:10.110Z,2.00
2022-10-02T07:25:43.020Z,2.40
2022-10-02T07:28:21.773Z,2.30
2022-10-02T07:31:12.996Z,2.53
2022-10-02T07:33:55.528Z,2.43
2022-10-02T07:37:02.531Z,2.57
2022-10-02T07:39:38.455Z,2.00
2022-10-02T07:42:25.026Z,2.27
2022-10-02T07:45:27.170Z,2.80
2022-10-02T07:48:15.857Z,2.43
2022-10-02T07:50:45.562Z,3.00
2022-10-02T07:53:15.307Z,2.63
2022-10-02T07:55:48.624Z,2.03
2022-10-02T07:58:40.592Z,2.10
2022-10-02T08:01:24.393Z,3.83
2022-10-02T08:04:10.661Z,2.70
2022-10-02T08:06:38.449Z,3.67
2022-10-02T08:09:12.375Z,2.27
2022-10-02T08:11:49.704Z,1.87
2022-10-02T08:14:38.270Z,2.00
2022-10-02T08:17:31.249Z,1.80
2022-10-02T08:20:11.074Z,1.93
2022-10-02T08:22:45.078Z,2.20
2022-10-02T08:25:31.906Z,2.10
2022-10-02T08:28:01.536Z,3.10
2022-10-02T08:30:28.259Z,2.20
2022-10-02T08:32:54.898Z,2.50
2022-10-02T08:35:22.363Z,1.80
2022-10-02T08:38:00.817Z,1.90
2022-10-02T08:40:56.250Z,1.67
2022-10-02T08:43:53.945Z,3.47
2022-10-02T08:46:23.783Z,1.67
2022-10-02T08:49:08.711Z,1.80
2022-10-02T08:52:08.016Z,1.60
2022-10-02T08:54:45.263Z,1.50
2022-10-02T08:57:44.711Z,1.57
2022-10-02T09:00:22.697Z,1.80
2022-10-02T09:03:19.093Z,1.67
2022-10-02T09:06:19.298Z,1.27
2022-10-02T09:09:15.996Z,1.40
2022-10-02T09:12:11.338Z,1.80
2022-10-02T09:14:43.702Z,1.60
2022-10-02T09:17:24.052Z,1.70
2022-10-02T09:20:43.766Z,1.50
2022-10-02T09:23:24.730Z,1.57
2022-10-02T09:26:32.201Z,1.50
2022-10-02T09:29:35.071Z,1.50
2022-10-02T09:32:29.997Z,1.30
2022-10-02T09:35:45.197Z,1.50
2022-10-02T09:38:30.117Z,2.80
2022-10-02T09:41:18.585Z,3.17
2022-10-02T09:44:23.769Z,2.53
2022-10-02T09:47:08.948Z,1.50
2022-10-02T09:49:53.806Z,2.23
2022-10-02T09:52:29.450Z,1.70
2022-10-02T09:55:22.262Z,1.90
2022-10-02T09:57:51.903Z,1.43
2022-10-02T10:00:21.422Z,1.00
2022-10-02T10:03:28.277Z,1.50
2022-10-02T10:06:06.911Z,1.30
2022-10-02T10:09:00.372Z,1.90
2022-10-02T10:12:02.854Z,1.60
2022-10-02T10:14:48.293Z,1.50
2022-10-02T10:17:39.187Z,1.23
2022-10-02T10:20:44.314Z,1.00
2022-10-02T10:24:08.049Z,1.13
2022-10-02T10:27:01.316Z,1.20
2022-10-02T10:29:55.257Z,1.00
2022-10-02T10:32:48.252Z,0.90
2022-10-02T10:35:31.236Z,1.30
2022-10-02T10:38:35.001Z,1.03
2022-10-02T10:41:46.364Z,1.00
2022-10-02T10:44:32.902Z,0.90
2022-10-02T10:47:21.090Z,1.00
2022-10-02T10:50:12.298Z,1.80
2022-10-02T10:53:14.259Z,0.90
2022-10-02T10:56:11.292Z,0.80
2022-10-02T10:58:52.905Z,0.80
2022-10-02T11:01:23.520Z,0.87
2022-10-02T11:04:09.080Z,1.60
2022-10-02T11:06:56.329Z,0.97
2022-10-02T11:09:22.939Z,1.00
2022-10-02T11:12:09.885Z,0.90
2022-10-02T11:14:55.515Z,1.00
2022-10-02T11:17:57.288Z,0.90
2022-10-02T11:20:41.012Z,1.07
2022-10-02T11:23:36.920Z,0.77
2022-10-02T11:26:32.630Z,0.70
2022-10-02T11:29:02.381Z,0.60
2022-10-02T11:31:47.288Z,0.70
2022-10-02T11:34:33.807Z,0.80
2022-10-02T11:37:07.912Z,0.67
2022-10-02T11:39:37.820Z,0.60
2022-10-02T11:42:28.426Z,0.60
2022-10-02T11:45:20.147Z,0.77
2022-10-02T11:48:15.329Z,0.63
2022-10-02T11:51:10.152Z,0.60
2022-10-02T11:53:39.554Z,2.70
2022-10-02T11:56:31.252Z,0.67
2022-10-02T11:59:29.802Z,0.77
2022-10-02T12:02:24.714Z,6.57
2022-10-02T12:05:13.349Z,0.80
2022-10-02T12:08:01.789Z,0.63
2022-10-02T12:10:28.329Z,0.50
2022-10-02T12:13:16.364Z,0.90
2022-10-02T12:16:17.352Z,0.50
2022-10-02T12:19:01.430Z,1.67
2022-10-02T12:22:06.757Z,0.73
2022-10-02T12:25:08.639Z,0.90
2022-10-02T12:27:53.885Z,0.60
2022-10-02T12:30:41.061Z,4.47
2022-10-02T12:33:29.835Z,2.07
2022-10-02T12:35:59.467Z,0.50
2022-10-02T12:38:26.682Z,0.60
2022-10-02T12:41:08.685Z,0.70
2022-10-02T12:43:44.909Z,1.90
2022-10-02T12:46:31.279Z,0.57
2022-10-02T12:49:35.773Z,0.60
2022-10-02T12:52:40.693Z,0.80
2022-10-02T12:55:37.704Z,0.73
2022-10-02T12:58:35.436Z,0.73
2022-10-02T13:01:41.075Z,1.80
2022-10-02T13:04:17.541Z,0.80
2022-10-02T13:07:26.209Z,0.97
2022-10-02T13:10:05.376Z,1.40
2022-10-02T13:13:06.087Z,0.60
2022-10-02T13:15:54.811Z,0.63
2022-10-02T13:18:35.760Z,0.87
2022-10-02T13:21:20.767Z,0.70
2022-10-02T13:24:06.141Z,0.70
2022-10-02T13:26:45.783Z,0.80
2022-10-02T13:29:42.901Z,0.70
2022-10-02T13:32:29.107Z,0.47
2022-10-02T13:35:07.585Z,0.90
2022-10-02T13:37:55.626Z,0.70
2022-10-02T13:40:43.953Z,0.80
2022-10-02T13:43:24.008Z,1.57
2022-10-02T13:45:56.216Z,0.70
2022-10-02T13:48:39.439Z,0.50
2022-10-02T13:51:19.507Z,0.50
2022-10-02T13:54:04.995Z,0.60
2022-10-02T13:56:54.560Z,1.50
2022-10-02T13:59:48.615Z,1.27
2022-10-02T14:02:34.064Z,0.63
2022-10-02T14:05:18.222Z,0.57
2022-10-02T14:07:52.431Z,1.37
2022-10-02T14:10:56.227Z,0.60
2022-10-02T14:13:49.863Z,0.67
2022-10-02T14:16:37.447Z,0.60
2022-10-02T14:19:14.340Z,0.60
2022-10-02T14:22:06.021Z,0.77
2022-10-02T14:25:03.911Z,0.80
2022-10-02T14:27:55.535Z,0.67
2022-10-02T14:30:29.260Z,1.23
2022-10-02T14:33:27.001Z,0.73
2022-10-02T14:36:22.926Z,0.63
2022-10-02T14:39:11.398Z,0.60
2022-10-02T14:41:51.852Z,0.60
2022-10-02T14:44:46.399Z,0.80
2022-10-02T14:47:21.151Z,0.70
2022-10-02T14:50:19.109Z,0.60
2022-10-02T14:53:23.207Z,1.23
2022-10-02T14:55:49.921Z,1.67
2022-10-02T14:58:34.792Z,0.90
2022-10-02T15:01:13.645Z,1.70
2022-10-02T15:03:47.192Z,1.40
2022-10-02T15:06:35.502Z,0.80
2022-10-02T15:09:24.152Z,1.30
2022-10-02T15:12:06.390Z,1.07
2022-10-02T15:14:55.844Z,0.73
2022-10-02T15:17:40.988Z,0.77
2022-10-02T15:20:40.712Z,0.55
2022-10-02T15:23:13.360Z,0.95
2022-10-02T15:26:15.399Z,1.40
2022-10-02T15:29:05.200Z,0.70
2022-10-02T15:32:09.021Z,0.77
2022-10-02T15:34:38.783Z,0.68
2022-10-02T15:37:14.576Z,0.75
2022-10-02T15:39:51.483Z,1.65
2022-10-02T15:42:41.937Z,2.08
2022-10-02T15:45:27.770Z,1.35
2022-10-02T15:48:13.152Z,1.63
2022-10-02T15:50:46.348Z,0.90
2022-10-02T15:53:31.013Z,1.27
2022-10-02T15:56:25.698Z,2.28
2022-10-02T15:59:10.880Z,2.17
2022-10-02T16:01:59.372Z,0.95
2022-10-02T16:04:44.237Z,1.77
2022-10-02T16:07:46.279Z,1.63
2022-10-02T16:10:26.442Z,0.95
2022-10-02T16:13:05.307Z,1.20
2022-10-02T16:15:50.950Z,1.10
2022-10-02T16:18:46.858Z,1.10
2022-10-02T16:21:32.598Z,1.02
2022-10-02T16:24:11.555Z,0.98
2022-10-02T16:27:28.262Z,0.57
2022-10-02T16:30:17.719Z,0.53
2022-10-02T16:33:18.221Z,0.97
2022-10-02T16:35:57.254Z,0.73
2022-10-02T16:38:49.480Z,0.60
2022-10-02T16:41:28.521Z,0.40
2022-10-02T16:44:07.187Z,1.00
2022-10-02T16:46:49.551Z,0.50
2022-10-02T16:49:28.655Z,0.70
2022-10-02T16:52:07.322Z,1.93
2022-10-02T16:54:46.799Z,0.67
2022-10-02T16:57:41.502Z,33.57
2022-10-02T17:00:23.945Z,1.00
2022-10-02T17:03:21.960Z,1.53
2022-10-02T17:05:59.223Z,1.43
2022-10-02T17:08:32.014Z,1.00
2022-10-02T17:11:16.904Z,0.80
2022-10-02T17:14:01.936Z,0.83
2022-10-02T17:16:40.879Z,1.03
2022-10-02T17:19:23.520Z,1.10
2022-10-02T17:22:06.291Z,2.60
2022-10-02T17:24:54.327Z,1.30
2022-10-02T17:27:48.637Z,1.70
2022-10-02T17:30:20.245Z,0.70
2022-10-02T17:32:46.786Z,0.67
2022-10-02T17:35:29.901Z,0.70
2022-10-02T17:38:05.023Z,3.50
2022-10-02T17:40:54.383Z,0.50
2022-10-02T17:43:37.323Z,0.50
2022-10-02T17:46:19.304Z,2.40
2022-10-02T17:48:45.813Z,0.80
2022-10-02T17:51:53.117Z,0.60
2022-10-02T17:55:26.429Z,0.90
2022-10-02T17:58:21.921Z,2.43
2022-10-02T18:01:05.844Z,0.87
2022-10-02T18:04:09.625Z,0.93
2022-10-02T18:06:52.346Z,0.90
2022-10-02T18:09:19.055Z,1.40
2022-10-02T18:12:18.927Z,1.00
2022-10-02T18:14:57.647Z,1.43
2022-10-02T18:17:49.214Z,0.80
2022-10-02T18:20:27.998Z,0.90
2022-10-02T18:23:32.035Z,1.47
2022-10-02T18:26:29.913Z,1.00
2022-10-02T18:29:18.735Z,0.70
2022-10-02T18:32:07.220Z,103.77
2022-10-02T18:34:46.014Z,135.03
2022-10-02T18:37:25.355Z,31.87
2022-10-02T18:40:06.671Z,9.60
2022-10-02T18:42:53.042Z,11.47
2022-10-02T18:45:51.293Z,5.47
2022-10-02T18:48:43.084Z,2.30
2022-10-02T18:51:34.863Z,4.43
2022-10-02T18:54:34.477Z,2.80
2022-10-02T18:57:24.535Z,4.80
2022-10-02T18:59:57.110Z,7.07
2022-10-02T19:02:44.790Z,4.23
2022-10-02T19:05:52.059Z,3.10
2022-10-02T19:08:26.428Z,2.57
2022-10-02T19:10:53.933Z,1.53
2022-10-02T19:13:29.223Z,1.30
2022-10-02T19:15:58.824Z,1.63
2022-10-02T19:18:28.823Z,1.87
2022-10-02T19:21:06.705Z,1.37
2022-10-02T19:24:01.420Z,1.00
2022-10-02T19:26:33.308Z,1.27
2022-10-02T19:29:05.690Z,0.80
2022-10-02T19:31:39.439Z,7.53
2022-10-02T19:34:15.972Z,12.77
2022-10-02T19:36:50.498Z,26.20
2022-10-02T19:39:22.258Z,16.37
2022-10-02T19:41:52.156Z,18.03
2022-10-02T19:44:31.280Z,10.60
2022-10-02T19:47:02.305Z,6.93
2022-10-02T19:49:38.417Z,28.10
2022-10-02T19:52:33.635Z,24.53
2022-10-02T19:55:05.233Z,18.97
2022-10-02T19:57:40.599Z,7.27
2022-10-02T20:00:15.341Z,2.03
2022-10-02T20:02:46.711Z,1.03
2022-10-02T20:05:24.034Z,1.20
2022-10-02T20:07:54.890Z,1.80
2022-10-02T20:10:46.425Z,1.70
2022-10-02T20:13:23.180Z,0.90
2022-10-02T20:16:46.670Z,1.83
2022-10-02T20:19:24.363Z,2.97
2022-10-02T20:22:15.921Z,1.73
2022-10-02T20:24:45.463Z,1.90
2022-10-02T20:27:22.395Z,2.50
2022-10-02T20:29:56.736Z,4.07
2022-10-02T20:32:34.528Z,3.20
2022-10-02T20:35:35.452Z,1.40
2022-10-02T20:38:07.819Z,1.70
2022-10-02T20:40:38.317Z,1.23
2022-10-02T20:43:13.070Z,0.80
2022-10-02T20:45:44.613Z,0.70
2022-10-02T20:48:26.554Z,0.60
2022-10-02T20:51:16.385Z,0.90
2022-10-02T20:54:20.720Z,0.67
2022-10-02T20:57:10.310Z,2.77
2022-10-02T20:59:57.782Z,0.70
2022-10-02T21:02:36.362Z,0.70
2022-10-02T21:05:21.961Z,1.17
2022-10-02T21:08:06.778Z,0.60
2022-10-02T21:10:39.419Z,1.07
2022-10-02T21:13:14.636Z,0.83
2022-10-02T21:16:07.717Z,1.40
2022-10-02T21:19:00.256Z,1.53
2022-10-02T21:21:57.252Z,0.80
2022-10-02T21:24:45.294Z,1.40
2022-10-02T21:27:39.904Z,2.00
2022-10-02T21:30:20.646Z,0.97
2022-10-02T21:33:00.921Z,0.90
2022-10-02T21:35:55.473Z,0.80
2022-10-02T21:38:40.946Z,1.23
2022-10-02T21:41:34.026Z,0.63
2022-10-02T21:44:06.664Z,2.90
2022-10-02T21:47:24.859Z,1.60
2022-10-02T21:50:15.382Z,0.90
2022-10-02T21:53:04.849Z,0.80
2022-10-02T21:56:12.852Z,0.90
2022-10-02T21:58:51.179Z,0.93
2022-10-02T22:02:03.861Z,1.30
2022-10-02T22:04:57.305Z,0.90
2022-10-02T22:07:36.104Z,0.70
2022-10-02T22:10:30.790Z,2.53
2022-10-02T22:13:25.520Z,1.10
2022-10-02T22:15:58.069Z,1.47
2022-10-02T22:18:39.358Z,1.37
2022-10-02T22:21:47.529Z,0.80
2022-10-02T22:24:35.534Z,0.50
2022-10-02T22:27:23.437Z,0.70
2022-10-02T22:29:53.522Z,0.70
2022-10-02T22:32:52.512Z,0.73
2022-10-02T22:35:52.999Z,1.10
2022-10-02T22:38:40.525Z,0.70
2022-10-02T22:41:16.299Z,1.10
2022-10-02T22:44:14.007Z,1.50
2022-10-02T22:46:55.731Z,0.60
2022-10-02T22:50:00.014Z,0.50
2022-10-02T22:52:43.614Z,0.63
2022-10-02T22:55:18.934Z,0.70
2022-10-02T22:57:46.114Z,1.40
2022-10-02T23:00:26.100Z,1.37
2022-10-02T23:03:24.566Z,0.60
2022-10-02T23:05:56.872Z,1.10
2022-10-02T23:08:31.671Z,0.60
2022-10-02T23:11:04.714Z,0.90
2022-10-02T23:13:40.783Z,0.90
2022-10-02T23:16:16.680Z,1.10
2022-10-02T23:18:53.174Z,0.80
2022-10-02T23:21:32.577Z,0.60
2022-10-02T23:24:14.332Z,0.80
2022-10-02T23:26:59.561Z,0.83
2022-10-02T23:29:31.824Z,0.70
2022-10-02T23:32:12.766Z,0.80
2022-10-02T23:34:59.852Z,1.97
2022-10-02T23:37:50.876Z,0.73
2022-10-02T23:40:47.199Z,1.00
2022-10-02T23:43:21.767Z,0.80
2022-10-02T23:45:57.882Z,0.80
2022-10-02T23:48:24.997Z,2.90
2022-10-02T23:51:08.358Z,0.80
2022-10-02T23:53:34.896Z,0.90
2022-10-02T23:56:28.970Z,0.70
2022-10-02T23:59:22.013Z,0.60
